sensor_id;sensor_type;location;lat;lon;timestamp;pressure;altitude;pressure_sealevel;temperature;humidity
12785;BME280;6456;42.680;23.260;2023-04-09T00:00:43;94700.34;;;6.96;100.00
12785;BME280;6456;42.680;23.260;2023-04-09T00:03:10;94862.56;;;7.87;100.00
12785;BME280;6456;42.680;23.260;2023-04-09T00:05:38;94857.94;;;7.89;100.00
12785;BME280;6456;42.680;23.260;2023-04-09T00:08:05;94852.31;;;7.86;100.00
12785;BME280;6456;42.680;23.260;2023-04-09T00:10:33;94746.66;;;7.23;100.00
12785;BME280;6456;42.680;23.260;2023-04-09T00:12:59;94837.16;;;7.81;100.00
12785;BME280;6456;42.680;23.260;2023-04-09T00:15:26;94873.28;;;8.13;100.00
12785;BME280;6456;42.680;23.260;2023-04-09T00:17:55;94884.81;;;8.19;100.00
12785;BME280;6456;42.680;23.260;2023-04-09T00:20:22;94861.38;;;8.17;100.00
12785;BME280;6456;42.680;23.260;2023-04-09T00:22:51;94748.50;;;7.29;100.00
12785;BME280;6456;42.680;23.260;2023-04-09T00:25:18;94868.25;;;8.18;100.00
12785;BME280;6456;42.680;23.260;2023-04-09T00:27:45;94857.72;;;8.12;100.00
12785;BME280;6456;42.680;23.260;2023-04-09T00:30:12;94853.53;;;8.17;100.00
12785;BME280;6456;42.680;23.260;2023-04-09T00:32:39;94795.78;;;7.76;100.00
12785;BME280;6456;42.680;23.260;2023-04-09T00:35:08;94822.94;;;7.97;100.00
12785;BME280;6456;42.680;23.260;2023-04-09T00:37:35;94821.94;;;7.98;100.00
12785;BME280;6456;42.680;23.260;2023-04-09T00:40:03;94814.84;;;7.92;100.00
12785;BME280;6456;42.680;23.260;2023-04-09T00:42:31;94868.63;;;8.36;100.00
12785;BME280;6456;42.680;23.260;2023-04-09T00:44:58;94819.13;;;7.99;100.00
12785;BME280;6456;42.680;23.260;2023-04-09T00:47:25;94875.09;;;8.41;100.00
12785;BME280;6456;42.680;23.260;2023-04-09T00:49:52;94869.03;;;8.40;100.00
12785;BME280;6456;42.680;23.260;2023-04-09T00:52:21;94869.63;;;8.42;100.00
12785;BME280;6456;42.680;23.260;2023-04-09T00:54:48;94871.47;;;8.42;100.00
12785;BME280;6456;42.680;23.260;2023-04-09T00:57:16;94857.31;;;8.36;100.00
12785;BME280;6456;42.680;23.260;2023-04-09T00:59:44;94820.25;;;8.11;100.00
12785;BME280;6456;42.680;23.260;2023-04-09T01:02:11;94855.06;;;8.33;100.00
12785;BME280;6456;42.680;23.260;2023-04-09T01:04:40;94829.53;;;8.14;100.00
12785;BME280;6456;42.680;23.260;2023-04-09T01:07:12;94861.78;;;8.42;100.00
12785;BME280;6456;42.680;23.260;2023-04-09T01:09:49;94856.47;;;8.29;100.00
12785;BME280;6456;42.680;23.260;2023-04-09T01:12:27;94882.75;;;8.42;100.00
12785;BME280;6456;42.680;23.260;2023-04-09T01:15:02;94875.53;;;8.44;100.00
12785;BME280;6456;42.680;23.260;2023-04-09T01:17:34;94870.28;;;8.44;100.00
12785;BME280;6456;42.680;23.260;2023-04-09T01:20:09;94874.88;;;8.42;100.00
12785;BME280;6456;42.680;23.260;2023-04-09T01:22:47;94870.22;;;8.37;100.00
12785;BME280;6456;42.680;23.260;2023-04-09T01:25:34;94875.91;;;8.41;100.00
12785;BME280;6456;42.680;23.260;2023-04-09T01:28:17;94879.13;;;8.43;100.00
12785;BME280;6456;42.680;23.260;2023-04-09T01:30:47;94880.75;;;8.44;100.00
12785;BME280;6456;42.680;23.260;2023-04-09T01:33:15;94829.28;;;8.09;100.00
12785;BME280;6456;42.680;23.260;2023-04-09T01:35:45;94864.97;;;8.37;100.00
12785;BME280;6456;42.680;23.260;2023-04-09T01:38:13;94846.97;;;8.28;100.00
12785;BME280;6456;42.680;23.260;2023-04-09T01:40:42;94878.56;;;8.48;100.00
12785;BME280;6456;42.680;23.260;2023-04-09T01:43:10;94865.78;;;8.38;100.00
12785;BME280;6456;42.680;23.260;2023-04-09T01:45:40;94825.28;;;8.13;100.00
12785;BME280;6456;42.680;23.260;2023-04-09T01:48:07;94878.75;;;8.46;100.00
12785;BME280;6456;42.680;23.260;2023-04-09T01:50:34;94879.50;;;8.40;100.00
12785;BME280;6456;42.680;23.260;2023-04-09T01:53:02;94871.66;;;8.40;100.00
12785;BME280;6456;42.680;23.260;2023-04-09T01:55:29;94782.94;;;7.82;100.00
12785;BME280;6456;42.680;23.260;2023-04-09T01:57:56;94877.91;;;8.39;100.00
12785;BME280;6456;42.680;23.260;2023-04-09T02:00:25;94768.13;;;7.67;100.00
12785;BME280;6456;42.680;23.260;2023-04-09T02:03:00;94814.94;;;8.05;100.00
12785;BME280;6456;42.680;23.260;2023-04-09T02:05:36;94857.09;;;8.31;100.00
12785;BME280;6456;42.680;23.260;2023-04-09T02:08:06;94862.91;;;8.26;100.00
12785;BME280;6456;42.680;23.260;2023-04-09T02:10:34;94875.06;;;8.34;100.00
12785;BME280;6456;42.680;23.260;2023-04-09T02:13:04;94859.44;;;8.26;100.00
12785;BME280;6456;42.680;23.260;2023-04-09T02:15:35;94759.44;;;7.60;100.00
12785;BME280;6456;42.680;23.260;2023-04-09T02:18:04;94876.25;;;8.31;100.00
12785;BME280;6456;42.680;23.260;2023-04-09T02:20:31;94872.19;;;8.29;100.00
12785;BME280;6456;42.680;23.260;2023-04-09T02:22:57;94843.00;;;8.11;100.00
12785;BME280;6456;42.680;23.260;2023-04-09T02:25:25;94878.97;;;8.23;100.00
12785;BME280;6456;42.680;23.260;2023-04-09T02:27:52;94872.94;;;8.23;100.00
12785;BME280;6456;42.680;23.260;2023-04-09T02:30:19;94813.34;;;7.76;100.00
12785;BME280;6456;42.680;23.260;2023-04-09T02:32:46;94872.47;;;8.19;100.00
12785;BME280;6456;42.680;23.260;2023-04-09T02:35:14;94875.75;;;8.21;100.00
12785;BME280;6456;42.680;23.260;2023-04-09T02:37:41;94791.47;;;7.62;100.00
12785;BME280;6456;42.680;23.260;2023-04-09T02:40:09;94878.88;;;8.10;100.00
12785;BME280;6456;42.680;23.260;2023-04-09T02:42:36;94869.34;;;8.03;100.00
12785;BME280;6456;42.680;23.260;2023-04-09T02:45:03;94873.84;;;8.09;100.00
12785;BME280;6456;42.680;23.260;2023-04-09T02:47:30;94826.25;;;7.78;100.00
12785;BME280;6456;42.680;23.260;2023-04-09T02:49:57;94864.72;;;8.05;100.00
12785;BME280;6456;42.680;23.260;2023-04-09T02:52:25;94861.50;;;8.03;100.00
12785;BME280;6456;42.680;23.260;2023-04-09T02:54:52;94803.56;;;7.63;100.00
12785;BME280;6456;42.680;23.260;2023-04-09T02:57:19;94856.38;;;7.95;100.00
12785;BME280;6456;42.680;23.260;2023-04-09T02:59:46;94866.88;;;7.95;100.00
12785;BME280;6456;42.680;23.260;2023-04-09T03:02:12;94865.63;;;7.91;100.00
12785;BME280;6456;42.680;23.260;2023-04-09T03:04:39;94813.19;;;7.56;100.00
12785;BME280;6456;42.680;23.260;2023-04-09T03:07:06;94864.00;;;7.90;100.00
12785;BME280;6456;42.680;23.260;2023-04-09T03:09:35;94759.75;;;7.23;100.00
12785;BME280;6456;42.680;23.260;2023-04-09T03:12:01;94795.97;;;7.47;100.00
12785;BME280;6456;42.680;23.260;2023-04-09T03:14:28;94845.38;;;7.78;100.00
12785;BME280;6456;42.680;23.260;2023-04-09T03:16:55;94861.69;;;7.73;100.00
12785;BME280;6456;42.680;23.260;2023-04-09T03:19:22;94824.38;;;7.44;100.00
12785;BME280;6456;42.680;23.260;2023-04-09T03:21:49;94856.69;;;7.57;100.00
12785;BME280;6456;42.680;23.260;2023-04-09T03:24:16;94861.88;;;7.51;100.00
12785;BME280;6456;42.680;23.260;2023-04-09T03:26:44;94864.06;;;7.47;100.00
12785;BME280;6456;42.680;23.260;2023-04-09T03:29:11;94780.78;;;6.94;100.00
12785;BME280;6456;42.680;23.260;2023-04-09T03:31:38;94861.88;;;7.51;100.00
12785;BME280;6456;42.680;23.260;2023-04-09T03:34:05;94789.53;;;7.01;100.00
12785;BME280;6456;42.680;23.260;2023-04-09T03:36:32;94864.66;;;7.49;100.00
12785;BME280;6456;42.680;23.260;2023-04-09T03:38:59;94848.09;;;7.42;100.00
12785;BME280;6456;42.680;23.260;2023-04-09T03:41:26;94783.59;;;6.92;100.00
12785;BME280;6456;42.680;23.260;2023-04-09T03:43:54;94799.34;;;6.99;100.00
12785;BME280;6456;42.680;23.260;2023-04-09T03:46:21;94874.28;;;7.42;100.00
12785;BME280;6456;42.680;23.260;2023-04-09T03:48:49;94730.34;;;6.58;100.00
12785;BME280;6456;42.680;23.260;2023-04-09T03:51:17;94794.50;;;6.96;100.00
12785;BME280;6456;42.680;23.260;2023-04-09T03:53:43;94871.03;;;7.40;100.00
12785;BME280;6456;42.680;23.260;2023-04-09T03:56:10;94807.84;;;7.01;100.00
12785;BME280;6456;42.680;23.260;2023-04-09T03:58:37;94879.13;;;7.45;100.00
12785;BME280;6456;42.680;23.260;2023-04-09T04:01:05;94876.53;;;7.45;100.00
12785;BME280;6456;42.680;23.260;2023-04-09T04:03:32;94885.19;;;7.46;100.00
12785;BME280;6456;42.680;23.260;2023-04-09T04:05:59;94799.75;;;6.96;100.00
12785;BME280;6456;42.680;23.260;2023-04-09T04:08:27;94884.38;;;7.45;100.00
12785;BME280;6456;42.680;23.260;2023-04-09T04:10:54;94849.59;;;7.30;100.00
12785;BME280;6456;42.680;23.260;2023-04-09T04:13:21;94877.75;;;7.49;100.00
12785;BME280;6456;42.680;23.260;2023-04-09T04:15:48;94880.56;;;7.48;100.00
12785;BME280;6456;42.680;23.260;2023-04-09T04:18:16;94874.91;;;7.44;100.00
12785;BME280;6456;42.680;23.260;2023-04-09T04:20:43;94860.06;;;7.30;100.00
12785;BME280;6456;42.680;23.260;2023-04-09T04:23:10;94872.69;;;7.27;100.00
12785;BME280;6456;42.680;23.260;2023-04-09T04:25:39;94875.41;;;7.33;100.00
12785;BME280;6456;42.680;23.260;2023-04-09T04:28:06;94857.56;;;7.22;100.00
12785;BME280;6456;42.680;23.260;2023-04-09T04:30:33;94831.25;;;7.09;100.00
12785;BME280;6456;42.680;23.260;2023-04-09T04:33:00;94885.13;;;7.39;100.00
12785;BME280;6456;42.680;23.260;2023-04-09T04:35:28;94885.75;;;7.41;100.00
12785;BME280;6456;42.680;23.260;2023-04-09T04:37:55;94881.16;;;7.43;100.00
12785;BME280;6456;42.680;23.260;2023-04-09T04:40:22;94857.69;;;7.35;100.00
12785;BME280;6456;42.680;23.260;2023-04-09T04:42:49;94881.06;;;7.58;100.00
12785;BME280;6456;42.680;23.260;2023-04-09T04:45:16;94867.13;;;7.51;100.00
12785;BME280;6456;42.680;23.260;2023-04-09T04:47:42;94891.84;;;7.69;100.00
12785;BME280;6456;42.680;23.260;2023-04-09T04:50:09;94874.16;;;7.71;100.00
12785;BME280;6456;42.680;23.260;2023-04-09T04:52:37;94888.38;;;7.84;100.00
12785;BME280;6456;42.680;23.260;2023-04-09T04:55:05;94790.00;;;7.32;100.00
12785;BME280;6456;42.680;23.260;2023-04-09T04:57:33;94813.94;;;7.50;100.00
12785;BME280;6456;42.680;23.260;2023-04-09T05:00:00;94889.38;;;8.10;100.00
12785;BME280;6456;42.680;23.260;2023-04-09T05:02:26;94846.94;;;7.94;100.00
12785;BME280;6456;42.680;23.260;2023-04-09T05:04:53;94785.75;;;7.52;100.00
12785;BME280;6456;42.680;23.260;2023-04-09T05:07:20;94890.84;;;8.19;100.00
12785;BME280;6456;42.680;23.260;2023-04-09T05:09:48;94890.03;;;8.19;100.00
12785;BME280;6456;42.680;23.260;2023-04-09T05:12:15;94889.13;;;8.26;100.00
12785;BME280;6456;42.680;23.260;2023-04-09T05:14:42;94860.34;;;8.12;100.00
12785;BME280;6456;42.680;23.260;2023-04-09T05:17:09;94886.28;;;8.28;100.00
12785;BME280;6456;42.680;23.260;2023-04-09T05:19:36;94886.97;;;8.36;100.00
12785;BME280;6456;42.680;23.260;2023-04-09T05:22:02;94891.16;;;8.31;100.00
12785;BME280;6456;42.680;23.260;2023-04-09T05:24:29;94885.22;;;8.50;100.00
12785;BME280;6456;42.680;23.260;2023-04-09T05:26:57;94881.03;;;8.56;100.00
12785;BME280;6456;42.680;23.260;2023-04-09T05:29:25;94888.50;;;8.59;100.00
12785;BME280;6456;42.680;23.260;2023-04-09T05:31:52;94884.91;;;8.66;100.00
12785;BME280;6456;42.680;23.260;2023-04-09T05:34:19;94883.91;;;8.67;100.00
12785;BME280;6456;42.680;23.260;2023-04-09T05:36:46;94877.06;;;8.73;100.00
12785;BME280;6456;42.680;23.260;2023-04-09T05:39:12;94880.50;;;8.73;100.00
12785;BME280;6456;42.680;23.260;2023-04-09T05:41:39;94871.97;;;8.65;100.00
12785;BME280;6456;42.680;23.260;2023-04-09T05:44:10;94884.34;;;8.77;100.00
12785;BME280;6456;42.680;23.260;2023-04-09T05:46:37;94894.22;;;8.69;100.00
12785;BME280;6456;42.680;23.260;2023-04-09T05:49:04;94880.75;;;8.44;100.00
12785;BME280;6456;42.680;23.260;2023-04-09T05:51:30;94854.84;;;8.28;100.00
12785;BME280;6456;42.680;23.260;2023-04-09T05:53:57;94893.69;;;8.52;100.00
12785;BME280;6456;42.680;23.260;2023-04-09T05:56:24;94891.31;;;8.57;100.00
12785;BME280;6456;42.680;23.260;2023-04-09T05:58:52;94888.28;;;8.54;100.00
12785;BME280;6456;42.680;23.260;2023-04-09T06:01:20;94888.50;;;8.59;100.00
12785;BME280;6456;42.680;23.260;2023-04-09T06:03:47;94886.34;;;8.69;100.00
12785;BME280;6456;42.680;23.260;2023-04-09T06:06:14;94889.31;;;8.59;100.00
12785;BME280;6456;42.680;23.260;2023-04-09T06:08:40;94887.34;;;8.74;100.00
12785;BME280;6456;42.680;23.260;2023-04-09T06:11:09;94889.44;;;8.79;100.00
12785;BME280;6456;42.680;23.260;2023-04-09T06:13:36;94874.75;;;8.91;100.00
12785;BME280;6456;42.680;23.260;2023-04-09T06:16:03;94801.50;;;8.49;100.00
12785;BME280;6456;42.680;23.260;2023-04-09T06:18:32;94849.09;;;8.93;100.00
12785;BME280;6456;42.680;23.260;2023-04-09T06:21:02;94887.44;;;9.41;100.00
12785;BME280;6456;42.680;23.260;2023-04-09T06:23:29;94892.13;;;9.59;100.00
12785;BME280;6456;42.680;23.260;2023-04-09T06:25:56;94899.75;;;9.47;100.00
12785;BME280;6456;42.680;23.260;2023-04-09T06:28:22;94892.50;;;9.56;100.00
12785;BME280;6456;42.680;23.260;2023-04-09T06:30:49;94886.84;;;9.65;100.00
12785;BME280;6456;42.680;23.260;2023-04-09T06:33:17;94897.59;;;10.03;100.00
12785;BME280;6456;42.680;23.260;2023-04-09T06:35:46;94903.47;;;10.25;100.00
12785;BME280;6456;42.680;23.260;2023-04-09T06:38:13;94766.41;;;9.36;99.11
12785;BME280;6456;42.680;23.260;2023-04-09T06:40:40;94903.88;;;10.09;97.30
12785;BME280;6456;42.680;23.260;2023-04-09T06:43:08;94816.13;;;9.51;95.61
12785;BME280;6456;42.680;23.260;2023-04-09T06:45:35;94889.91;;;9.76;95.77
12785;BME280;6456;42.680;23.260;2023-04-09T06:48:03;94902.47;;;10.06;96.84
12785;BME280;6456;42.680;23.260;2023-04-09T06:50:30;94907.91;;;9.98;97.18
12785;BME280;6456;42.680;23.260;2023-04-09T06:52:58;94894.94;;;9.71;96.37
12785;BME280;6456;42.680;23.260;2023-04-09T06:55:25;94886.47;;;9.75;97.81
12785;BME280;6456;42.680;23.260;2023-04-09T06:57:52;94911.75;;;10.02;98.09
12785;BME280;6456;42.680;23.260;2023-04-09T07:00:19;94913.59;;;10.15;97.41
12785;BME280;6456;42.680;23.260;2023-04-09T07:02:47;94914.38;;;10.02;97.19
12785;BME280;6456;42.680;23.260;2023-04-09T07:05:14;94931.97;;;9.95;97.64
12785;BME280;6456;42.680;23.260;2023-04-09T07:07:41;94855.34;;;9.59;100.00
12785;BME280;6456;42.680;23.260;2023-04-09T07:10:10;94893.94;;;9.98;97.70
12785;BME280;6456;42.680;23.260;2023-04-09T07:12:36;94922.72;;;10.19;92.87
12785;BME280;6456;42.680;23.260;2023-04-09T07:15:05;94920.47;;;10.22;90.29
12785;BME280;6456;42.680;23.260;2023-04-09T07:17:32;94904.91;;;10.27;88.86
12785;BME280;6456;42.680;23.260;2023-04-09T07:19:59;94911.53;;;10.50;87.44
12785;BME280;6456;42.680;23.260;2023-04-09T07:22:27;94916.41;;;10.66;86.51
12785;BME280;6456;42.680;23.260;2023-04-09T07:24:54;94917.38;;;10.84;84.73
12785;BME280;6456;42.680;23.260;2023-04-09T07:27:24;94916.75;;;10.89;84.33
12785;BME280;6456;42.680;23.260;2023-04-09T07:29:53;94923.53;;;11.16;84.54
12785;BME280;6456;42.680;23.260;2023-04-09T07:32:21;94906.09;;;11.22;84.43
12785;BME280;6456;42.680;23.260;2023-04-09T07:34:47;94909.88;;;11.39;82.14
12785;BME280;6456;42.680;23.260;2023-04-09T07:37:16;94920.13;;;11.53;82.47
12785;BME280;6456;42.680;23.260;2023-04-09T07:39:43;94924.72;;;11.71;80.11
12785;BME280;6456;42.680;23.260;2023-04-09T07:42:09;94925.16;;;11.68;77.93
12785;BME280;6456;42.680;23.260;2023-04-09T07:44:37;94895.84;;;11.45;78.55
12785;BME280;6456;42.680;23.260;2023-04-09T07:47:06;94897.78;;;11.63;78.80
12785;BME280;6456;42.680;23.260;2023-04-09T07:49:35;94825.16;;;11.04;78.93
12785;BME280;6456;42.680;23.260;2023-04-09T07:52:02;94910.22;;;11.49;79.35
12785;BME280;6456;42.680;23.260;2023-04-09T07:54:29;94925.34;;;11.67;78.65
12785;BME280;6456;42.680;23.260;2023-04-09T07:56:56;94923.25;;;11.82;81.17
12785;BME280;6456;42.680;23.260;2023-04-09T07:59:23;94902.06;;;11.95;78.98
12785;BME280;6456;42.680;23.260;2023-04-09T08:01:52;94900.22;;;12.20;77.56
12785;BME280;6456;42.680;23.260;2023-04-09T08:04:19;94931.44;;;12.54;77.23
12785;BME280;6456;42.680;23.260;2023-04-09T08:06:45;94908.75;;;12.22;75.25
12785;BME280;6456;42.680;23.260;2023-04-09T08:09:15;94917.31;;;12.17;75.58
12785;BME280;6456;42.680;23.260;2023-04-09T08:11:42;94860.16;;;11.80;76.82
12785;BME280;6456;42.680;23.260;2023-04-09T08:14:10;94929.25;;;12.20;77.07
12785;BME280;6456;42.680;23.260;2023-04-09T08:16:38;94911.50;;;12.09;74.22
12785;BME280;6456;42.680;23.260;2023-04-09T08:19:07;94930.28;;;12.19;74.14
12785;BME280;6456;42.680;23.260;2023-04-09T08:21:35;94922.09;;;12.02;72.21
12785;BME280;6456;42.680;23.260;2023-04-09T08:24:03;94926.00;;;11.93;73.17
12785;BME280;6456;42.680;23.260;2023-04-09T08:26:30;94927.66;;;11.88;74.12
12785;BME280;6456;42.680;23.260;2023-04-09T08:28:57;94910.47;;;12.10;76.24
12785;BME280;6456;42.680;23.260;2023-04-09T08:31:24;94924.75;;;12.27;74.59
12785;BME280;6456;42.680;23.260;2023-04-09T08:33:51;94889.41;;;12.03;75.03
12785;BME280;6456;42.680;23.260;2023-04-09T08:36:20;94923.94;;;12.02;74.12
12785;BME280;6456;42.680;23.260;2023-04-09T08:38:47;94887.28;;;11.56;74.95
12785;BME280;6456;42.680;23.260;2023-04-09T08:41:18;94905.47;;;11.71;76.87
12785;BME280;6456;42.680;23.260;2023-04-09T08:43:45;94909.66;;;11.40;75.65
12785;BME280;6456;42.680;23.260;2023-04-09T08:46:13;94874.28;;;11.23;78.27
12785;BME280;6456;42.680;23.260;2023-04-09T08:48:42;94893.84;;;11.40;76.48
12785;BME280;6456;42.680;23.260;2023-04-09T08:51:12;94904.09;;;11.55;77.21
12785;BME280;6456;42.680;23.260;2023-04-09T08:53:42;94904.03;;;11.30;78.12
12785;BME280;6456;42.680;23.260;2023-04-09T08:56:10;94869.69;;;11.12;79.88
12785;BME280;6456;42.680;23.260;2023-04-09T08:58:41;94859.63;;;10.96;78.79
12785;BME280;6456;42.680;23.260;2023-04-09T09:01:18;94883.84;;;11.11;80.82
12785;BME280;6456;42.680;23.260;2023-04-09T09:03:59;94891.00;;;11.42;81.02
12785;BME280;6456;42.680;23.260;2023-04-09T09:06:27;94845.44;;;10.97;79.75
12785;BME280;6456;42.680;23.260;2023-04-09T09:09:05;94893.88;;;11.34;79.06
12785;BME280;6456;42.680;23.260;2023-04-09T09:11:33;94828.44;;;10.93;79.31
12785;BME280;6456;42.680;23.260;2023-04-09T09:14:01;94881.00;;;11.13;79.56
12785;BME280;6456;42.680;23.260;2023-04-09T09:16:28;94898.03;;;11.17;78.05
12785;BME280;6456;42.680;23.260;2023-04-09T09:18:55;94879.41;;;11.05;79.35
12785;BME280;6456;42.680;23.260;2023-04-09T09:21:22;94886.66;;;11.16;78.97
12785;BME280;6456;42.680;23.260;2023-04-09T09:23:49;94891.91;;;11.23;78.76
12785;BME280;6456;42.680;23.260;2023-04-09T09:26:20;94897.94;;;11.36;78.51
12785;BME280;6456;42.680;23.260;2023-04-09T09:28:47;94885.50;;;11.12;77.55
12785;BME280;6456;42.680;23.260;2023-04-09T09:31:15;94891.31;;;11.21;78.88
12785;BME280;6456;42.680;23.260;2023-04-09T09:33:42;94859.56;;;11.09;77.50
12785;BME280;6456;42.680;23.260;2023-04-09T09:36:09;94839.53;;;11.02;77.04
12785;BME280;6456;42.680;23.260;2023-04-09T09:38:53;94879.38;;;11.56;78.61
12785;BME280;6456;42.680;23.260;2023-04-09T09:41:22;94880.13;;;11.70;77.21
12785;BME280;6456;42.680;23.260;2023-04-09T09:43:50;94870.81;;;11.60;75.37
12785;BME280;6456;42.680;23.260;2023-04-09T09:46:17;94876.47;;;11.71;74.18
12785;BME280;6456;42.680;23.260;2023-04-09T09:48:44;94887.59;;;11.73;74.32
12785;BME280;6456;42.680;23.260;2023-04-09T09:51:12;94800.22;;;11.07;74.54
12785;BME280;6456;42.680;23.260;2023-04-09T09:53:42;94874.31;;;11.54;74.13
12785;BME280;6456;42.680;23.260;2023-04-09T09:56:14;94876.63;;;11.76;72.90
12785;BME280;6456;42.680;23.260;2023-04-09T09:58:48;94875.75;;;11.88;73.71
12785;BME280;6456;42.680;23.260;2023-04-09T10:01:19;94866.09;;;11.76;71.26
12785;BME280;6456;42.680;23.260;2023-04-09T10:03:49;94843.53;;;11.48;69.27
12785;BME280;6456;42.680;23.260;2023-04-09T10:06:17;94824.41;;;11.28;69.45
12785;BME280;6456;42.680;23.260;2023-04-09T10:08:47;94872.19;;;11.76;69.18
12785;BME280;6456;42.680;23.260;2023-04-09T10:11:15;94870.56;;;11.75;68.26
12785;BME280;6456;42.680;23.260;2023-04-09T10:13:49;94851.31;;;11.75;68.92
12785;BME280;6456;42.680;23.260;2023-04-09T10:16:16;94849.59;;;12.11;68.38
12785;BME280;6456;42.680;23.260;2023-04-09T10:18:43;94868.31;;;12.28;66.31
12785;BME280;6456;42.680;23.260;2023-04-09T10:21:16;94846.38;;;12.09;65.52
12785;BME280;6456;42.680;23.260;2023-04-09T10:23:47;94852.06;;;12.06;65.34
12785;BME280;6456;42.680;23.260;2023-04-09T10:26:17;94862.03;;;12.04;66.08
12785;BME280;6456;42.680;23.260;2023-04-09T10:28:46;94871.19;;;12.02;66.38
12785;BME280;6456;42.680;23.260;2023-04-09T10:31:13;94843.56;;;12.04;65.84
12785;BME280;6456;42.680;23.260;2023-04-09T10:33:42;94860.34;;;12.35;66.61
12785;BME280;6456;42.680;23.260;2023-04-09T10:36:11;94831.22;;;12.23;65.02
12785;BME280;6456;42.680;23.260;2023-04-09T10:38:39;94845.75;;;12.32;63.92
12785;BME280;6456;42.680;23.260;2023-04-09T10:41:09;94860.59;;;12.51;63.99
12785;BME280;6456;42.680;23.260;2023-04-09T10:43:39;94843.19;;;12.44;64.09
12785;BME280;6456;42.680;23.260;2023-04-09T10:46:24;94859.72;;;12.94;64.94
12785;BME280;6456;42.680;23.260;2023-04-09T10:49:14;94850.88;;;13.36;63.41
12785;BME280;6456;42.680;23.260;2023-04-09T10:51:47;94850.53;;;13.62;61.86
12785;BME280;6456;42.680;23.260;2023-04-09T10:54:36;94841.63;;;13.86;62.19
12785;BME280;6456;42.680;23.260;2023-04-09T10:57:13;94828.84;;;13.83;60.06
12785;BME280;6456;42.680;23.260;2023-04-09T10:59:42;94829.22;;;13.87;59.18
12785;BME280;6456;42.680;23.260;2023-04-09T11:05:09;94808.38;;;13.90;56.43
12785;BME280;6456;42.680;23.260;2023-04-09T11:07:45;94818.19;;;14.13;58.23
12785;BME280;6456;42.680;23.260;2023-04-09T11:10:12;94806.13;;;14.29;58.60
12785;BME280;6456;42.680;23.260;2023-04-09T11:12:39;94819.16;;;14.53;57.17
12785;BME280;6456;42.680;23.260;2023-04-09T11:15:14;94824.88;;;14.73;58.95
12785;BME280;6456;42.680;23.260;2023-04-09T11:17:43;94812.31;;;14.92;60.55
12785;BME280;6456;42.680;23.260;2023-04-09T11:20:11;94829.84;;;15.21;57.65
12785;BME280;6456;42.680;23.260;2023-04-09T11:22:38;94815.91;;;15.14;53.08
12785;BME280;6456;42.680;23.260;2023-04-09T11:25:06;94824.16;;;14.90;53.19
12785;BME280;6456;42.680;23.260;2023-04-09T11:27:36;94818.97;;;14.83;55.03
12785;BME280;6456;42.680;23.260;2023-04-09T11:30:03;94816.53;;;14.93;55.32
12785;BME280;6456;42.680;23.260;2023-04-09T11:32:30;94825.28;;;15.05;55.49
12785;BME280;6456;42.680;23.260;2023-04-09T11:34:59;94823.44;;;15.06;55.28
12785;BME280;6456;42.680;23.260;2023-04-09T11:37:25;94826.31;;;15.04;56.01
12785;BME280;6456;42.680;23.260;2023-04-09T11:39:52;94829.47;;;14.90;57.96
12785;BME280;6456;42.680;23.260;2023-04-09T11:42:20;94792.56;;;14.60;58.97
12785;BME280;6456;42.680;23.260;2023-04-09T11:44:48;94832.84;;;14.62;59.65
12785;BME280;6456;42.680;23.260;2023-04-09T11:47:15;94832.28;;;14.48;61.28
12785;BME280;6456;42.680;23.260;2023-04-09T11:49:43;94836.38;;;14.21;63.57
12785;BME280;6456;42.680;23.260;2023-04-09T11:52:13;94826.00;;;14.08;62.42
12785;BME280;6456;42.680;23.260;2023-04-09T11:54:40;94819.22;;;14.00;63.37
12785;BME280;6456;42.680;23.260;2023-04-09T11:57:07;94814.16;;;13.87;64.34
12785;BME280;6456;42.680;23.260;2023-04-09T11:59:37;94809.19;;;13.79;63.51
12785;BME280;6456;42.680;23.260;2023-04-09T12:02:05;94781.81;;;13.62;63.72
12785;BME280;6456;42.680;23.260;2023-04-09T12:04:32;94792.19;;;13.75;63.86
12785;BME280;6456;42.680;23.260;2023-04-09T12:06:59;94785.59;;;13.66;63.42
12785;BME280;6456;42.680;23.260;2023-04-09T12:09:27;94816.56;;;13.89;63.12
12785;BME280;6456;42.680;23.260;2023-04-09T12:11:54;94804.34;;;13.88;64.79
12785;BME280;6456;42.680;23.260;2023-04-09T12:14:21;94809.00;;;13.92;66.17
12785;BME280;6456;42.680;23.260;2023-04-09T12:16:50;94804.84;;;13.96;67.05
12785;BME280;6456;42.680;23.260;2023-04-09T12:19:17;94808.31;;;14.08;67.66
12785;BME280;6456;42.680;23.260;2023-04-09T12:21:45;94800.97;;;14.22;67.11
12785;BME280;6456;42.680;23.260;2023-04-09T12:24:13;94797.88;;;14.37;66.92
12785;BME280;6456;42.680;23.260;2023-04-09T12:26:44;94788.84;;;14.61;66.33
12785;BME280;6456;42.680;23.260;2023-04-09T12:29:11;94776.88;;;14.70;64.62
12785;BME280;6456;42.680;23.260;2023-04-09T12:31:39;94788.66;;;14.91;64.28
12785;BME280;6456;42.680;23.260;2023-04-09T12:34:06;94799.00;;;15.04;61.83
12785;BME280;6456;42.680;23.260;2023-04-09T12:36:32;94789.56;;;15.08;60.50
12785;BME280;6456;42.680;23.260;2023-04-09T12:38:59;94790.06;;;15.21;60.66
12785;BME280;6456;42.680;23.260;2023-04-09T12:41:26;94793.78;;;15.20;59.89
12785;BME280;6456;42.680;23.260;2023-04-09T12:43:54;94785.34;;;15.23;60.38
12785;BME280;6456;42.680;23.260;2023-04-09T12:46:21;94783.03;;;15.27;58.79
12785;BME280;6456;42.680;23.260;2023-04-09T12:48:48;94783.03;;;15.27;53.55
12785;BME280;6456;42.680;23.260;2023-04-09T12:51:15;94769.34;;;15.18;52.41
12785;BME280;6456;42.680;23.260;2023-04-09T12:53:42;94783.50;;;15.24;52.38
12785;BME280;6456;42.680;23.260;2023-04-09T12:56:09;94755.97;;;15.25;53.78
12785;BME280;6456;42.680;23.260;2023-04-09T12:58:35;94750.41;;;14.98;50.82
12785;BME280;6456;42.680;23.260;2023-04-09T13:01:05;94769.41;;;15.07;51.27
12785;BME280;6456;42.680;23.260;2023-04-09T13:03:31;94752.84;;;14.88;51.79
12785;BME280;6456;42.680;23.260;2023-04-09T13:05:58;94766.91;;;14.89;53.18
12785;BME280;6456;42.680;23.260;2023-04-09T13:08:25;94762.88;;;14.86;54.98